Almena, Kansas
Current Conditions -  °F | °C
As of 11:53 AM on Thursday 27 Nov 2014 (Local Time) from KHLC Reporting Station
Clear Clear  
Wind Chill:   Ceiling: Unl
Heat Index:   Visibility: 10mi
Dew Point: -6°   Wind: 18mph
Humidity: 42%   Direction: 180°S
Pressure: 30.29"   Gusts: NA
Location:  39.89°N, 99.71°W
Report Text: KHLC 271753Z AUTO 18016KT 10SM CLR 06/M06 A3029 RMK AO2 SLP271 T00611061 10067 21061 58029
Loading
Personal Weather Stations






























Interactive Weather Map New forecast layout! Learn more

10-Day Weather Forecast

Advertisements
Track Severe Weather on mobile